createdAt,value
2023-02-26T00:01:02.097Z,1.40
2023-02-26T00:03:30.130Z,1.00
2023-02-26T00:06:01.240Z,0.90
2023-02-26T00:08:31.201Z,0.70
2023-02-26T00:11:01.957Z,0.80
2023-02-26T00:13:30.405Z,0.80
2023-02-26T00:16:01.440Z,0.95
2023-02-26T00:18:29.996Z,1.43
2023-02-26T00:20:58.110Z,1.23
2023-02-26T00:23:26.197Z,1.50
2023-02-26T00:25:53.848Z,1.17
2023-02-26T00:28:23.553Z,1.03
2023-02-26T00:30:51.731Z,1.00
2023-02-26T00:33:20.238Z,1.17
2023-02-26T00:35:48.093Z,1.10
2023-02-26T00:38:18.355Z,1.40
2023-02-26T00:40:48.113Z,0.70
2023-02-26T00:43:18.741Z,1.17
2023-02-26T00:45:56.905Z,1.00
2023-02-26T00:48:37.586Z,1.40
2023-02-26T00:51:14.442Z,1.10
2023-02-26T00:53:47.937Z,0.80
2023-02-26T00:56:16.108Z,0.93
2023-02-26T00:58:43.901Z,1.73
2023-02-26T01:01:12.907Z,0.93
2023-02-26T01:03:41.164Z,0.80
2023-02-26T01:06:12.599Z,1.30
2023-02-26T01:08:46.524Z,0.77
2023-02-26T01:11:14.761Z,0.80
2023-02-26T01:13:42.927Z,1.33
2023-02-26T01:16:18.757Z,0.90
2023-02-26T01:18:51.343Z,1.00
2023-02-26T01:21:25.688Z,1.00
2023-02-26T01:23:53.533Z,0.97
2023-02-26T01:26:24.793Z,0.90
2023-02-26T01:28:53.418Z,1.03
2023-02-26T01:31:35.804Z,1.27
2023-02-26T01:34:11.002Z,1.20
2023-02-26T01:36:44.918Z,1.13
2023-02-26T01:39:21.087Z,0.70
2023-02-26T01:41:52.090Z,1.10
2023-02-26T01:44:27.451Z,1.40
2023-02-26T01:47:07.200Z,1.10
2023-02-26T01:49:35.499Z,0.90
2023-02-26T01:52:05.127Z,1.70
2023-02-26T01:54:34.428Z,1.00
2023-02-26T01:57:05.894Z,1.23
2023-02-26T01:59:35.677Z,1.13
2023-02-26T02:02:07.992Z,1.07
2023-02-26T02:04:35.918Z,0.70
2023-02-26T02:07:03.668Z,1.03
2023-02-26T02:09:31.631Z,1.20
2023-02-26T02:12:19.753Z,1.00
2023-02-26T02:15:03.546Z,1.08
2023-02-26T02:17:42.858Z,1.00
2023-02-26T02:20:50.144Z,1.40
2023-02-26T02:23:25.579Z,0.90
2023-02-26T02:26:14.229Z,1.00
2023-02-26T02:28:51.513Z,1.40
2023-02-26T02:31:27.265Z,0.70
2023-02-26T02:33:59.656Z,0.80
2023-02-26T02:36:32.550Z,1.00
2023-02-26T02:39:05.588Z,0.90
2023-02-26T02:41:38.692Z,1.20
2023-02-26T02:44:11.214Z,0.97
2023-02-26T02:46:44.274Z,0.90
2023-02-26T02:49:16.296Z,0.97
2023-02-26T02:51:49.943Z,1.03
2023-02-26T02:54:21.759Z,0.60
2023-02-26T02:56:54.059Z,1.03
2023-02-26T02:59:24.924Z,0.80
2023-02-26T03:02:00.989Z,0.83
2023-02-26T03:04:28.819Z,1.00
2023-02-26T03:06:56.517Z,0.70
2023-02-26T03:09:24.091Z,0.83
2023-02-26T03:11:51.792Z,0.83
2023-02-26T03:14:19.756Z,0.57
2023-02-26T03:17:07.513Z,0.70
2023-02-26T03:19:42.126Z,0.75
2023-02-26T03:22:14.646Z,1.00
2023-02-26T03:24:51.449Z,0.80
2023-02-26T03:27:27.328Z,0.90
2023-02-26T03:29:57.809Z,0.80
2023-02-26T03:32:30.967Z,0.90
2023-02-26T03:35:05.865Z,1.00
2023-02-26T03:37:37.405Z,1.00
2023-02-26T03:40:10.838Z,1.10
2023-02-26T03:42:44.174Z,0.83
2023-02-26T03:45:15.546Z,0.60
2023-02-26T03:47:48.362Z,0.90
2023-02-26T03:50:21.263Z,0.80
2023-02-26T03:52:51.841Z,1.23
2023-02-26T03:55:23.704Z,1.23
2023-02-26T03:57:51.507Z,1.53
2023-02-26T04:00:20.476Z,0.70
2023-02-26T04:05:30.990Z,0.90
2023-02-26T04:07:59.715Z,1.33
2023-02-26T04:10:33.926Z,0.90
2023-02-26T04:13:02.030Z,0.90
2023-02-26T04:15:29.895Z,0.70
2023-02-26T04:17:59.007Z,1.07
2023-02-26T04:20:26.871Z,0.70
2023-02-26T04:22:54.514Z,0.87
2023-02-26T04:25:22.253Z,1.00
2023-02-26T04:27:49.922Z,0.90
2023-02-26T04:30:18.140Z,0.60
2023-02-26T04:32:45.909Z,0.90
2023-02-26T04:35:15.147Z,0.70
2023-02-26T04:37:42.885Z,0.77
2023-02-26T04:40:11.495Z,0.60
2023-02-26T04:42:39.170Z,0.70
2023-02-26T04:45:07.867Z,0.80
2023-02-26T04:47:35.643Z,0.52
2023-02-26T04:50:03.334Z,0.60
2023-02-26T04:52:32.340Z,1.00
2023-02-26T04:54:59.982Z,1.00
2023-02-26T04:57:27.718Z,0.70
2023-02-26T04:59:55.341Z,0.80
2023-02-26T05:02:23.004Z,0.87
2023-02-26T05:04:50.968Z,0.70
2023-02-26T05:07:18.802Z,0.68
2023-02-26T05:09:47.863Z,1.07
2023-02-26T05:12:16.129Z,0.57
2023-02-26T05:14:43.791Z,0.68
2023-02-26T05:17:11.457Z,0.80
2023-02-26T05:19:39.111Z,0.70
2023-02-26T05:22:06.747Z,0.83
2023-02-26T05:24:35.093Z,0.60
2023-02-26T05:27:04.186Z,0.60
2023-02-26T05:29:32.451Z,0.67
2023-02-26T05:32:00.099Z,0.60
2023-02-26T05:34:27.910Z,0.80
2023-02-26T05:36:55.643Z,0.93
2023-02-26T05:39:23.288Z,0.70
2023-02-26T05:41:51.943Z,0.77
2023-02-26T05:44:20.958Z,0.50
2023-02-26T05:46:48.849Z,0.80
2023-02-26T05:49:16.634Z,0.70
2023-02-26T05:51:44.360Z,1.13
2023-02-26T05:54:12.015Z,0.50
2023-02-26T05:56:39.718Z,0.70
2023-02-26T05:59:07.424Z,0.50
2023-02-26T06:01:37.513Z,0.70
2023-02-26T06:04:05.593Z,0.80
2023-02-26T06:06:33.424Z,1.00
2023-02-26T06:09:02.240Z,0.90
2023-02-26T06:11:31.311Z,1.30
2023-02-26T06:14:00.630Z,1.40
2023-02-26T06:16:28.757Z,1.45
2023-02-26T06:18:58.021Z,1.40
2023-02-26T06:21:25.699Z,0.83
2023-02-26T06:23:53.372Z,1.20
2023-02-26T06:26:23.442Z,0.70
2023-02-26T06:28:51.552Z,1.10
2023-02-26T06:31:19.290Z,1.00
2023-02-26T06:33:47.282Z,1.03
2023-02-26T06:36:17.520Z,0.90
2023-02-26T06:38:46.742Z,0.80
2023-02-26T06:41:14.807Z,1.03
2023-02-26T06:43:42.458Z,0.60
2023-02-26T06:46:10.126Z,1.43
2023-02-26T06:48:37.784Z,1.10
2023-02-26T06:51:07.533Z,1.40
2023-02-26T06:53:36.771Z,1.17
2023-02-26T06:56:04.859Z,1.00
2023-02-26T06:58:32.623Z,1.08
2023-02-26T07:01:00.244Z,1.30
2023-02-26T07:03:27.942Z,1.00
2023-02-26T07:05:55.787Z,1.00
2023-02-26T07:08:24.022Z,0.80
2023-02-26T07:10:52.991Z,1.08
2023-02-26T07:13:20.676Z,1.27
2023-02-26T07:15:48.299Z,0.87
2023-02-26T07:18:15.912Z,1.00
2023-02-26T07:20:45.009Z,1.27
2023-02-26T07:23:12.873Z,1.00
2023-02-26T07:25:40.599Z,1.13
2023-02-26T07:28:09.709Z,1.10
2023-02-26T07:30:37.372Z,1.40
2023-02-26T07:33:05.086Z,0.83
2023-02-26T07:35:32.724Z,0.90
2023-02-26T07:38:00.414Z,1.03
2023-02-26T07:40:28.098Z,0.77
2023-02-26T07:42:55.838Z,0.70
2023-02-26T07:45:25.046Z,0.97
2023-02-26T07:47:53.502Z,1.17
2023-02-26T07:50:24.864Z,0.90
2023-02-26T07:52:53.416Z,1.10
2023-02-26T07:55:21.610Z,0.70
2023-02-26T07:57:50.129Z,0.70
2023-02-26T08:00:18.981Z,1.33
2023-02-26T08:05:15.813Z,0.80
2023-02-26T08:07:43.504Z,0.93
2023-02-26T08:10:12.260Z,0.70
2023-02-26T08:12:39.971Z,1.00
2023-02-26T08:15:08.844Z,1.00
2023-02-26T08:20:06.098Z,0.87
2023-02-26T08:22:33.919Z,1.13
2023-02-26T08:25:01.659Z,0.70
2023-02-26T08:27:29.387Z,0.80
2023-02-26T08:29:57.015Z,0.70
2023-02-26T08:32:26.991Z,0.70
2023-02-26T08:34:55.579Z,0.70
2023-02-26T08:37:24.691Z,1.00
2023-02-26T08:39:52.367Z,1.00
2023-02-26T08:42:20.528Z,1.00
2023-02-26T08:44:48.555Z,0.50
2023-02-26T08:47:24.483Z,1.00
2023-02-26T08:49:55.786Z,0.70
2023-02-26T08:52:24.782Z,0.60
2023-02-26T08:54:53.227Z,0.67
2023-02-26T08:57:20.880Z,0.65
2023-02-26T08:59:48.535Z,1.00
2023-02-26T09:02:16.262Z,1.10
2023-02-26T09:04:44.036Z,1.13
2023-02-26T09:07:11.737Z,0.50
2023-02-26T09:09:40.772Z,0.60
2023-02-26T09:12:08.581Z,0.80
2023-02-26T09:14:36.300Z,0.70
2023-02-26T09:17:04.114Z,0.90
2023-02-26T09:19:31.795Z,0.70
2023-02-26T09:21:59.506Z,0.80
2023-02-26T09:24:27.216Z,0.80
2023-02-26T09:26:56.298Z,0.50
2023-02-26T09:29:23.908Z,0.67
2023-02-26T09:31:51.707Z,0.60
2023-02-26T09:34:20.494Z,0.60
2023-02-26T09:36:48.383Z,1.00
2023-02-26T09:39:15.969Z,0.90
2023-02-26T09:41:48.225Z,0.70
2023-02-26T09:44:22.952Z,0.80
2023-02-26T09:46:59.469Z,0.43
2023-02-26T09:49:36.068Z,0.67
2023-02-26T09:52:14.051Z,0.60
2023-02-26T09:54:47.338Z,0.80
2023-02-26T09:57:23.446Z,0.80
2023-02-26T09:59:53.104Z,0.50
2023-02-26T10:02:25.438Z,0.50
2023-02-26T10:05:01.456Z,0.47
2023-02-26T10:07:40.039Z,0.60
2023-02-26T10:10:20.387Z,0.60
2023-02-26T10:12:51.150Z,0.60
2023-02-26T10:15:24.263Z,0.93
2023-02-26T10:18:11.992Z,1.10
2023-02-26T10:20:49.152Z,0.50
2023-02-26T10:23:24.536Z,0.70
2023-02-26T10:25:55.233Z,0.60
2023-02-26T10:28:38.477Z,0.60
2023-02-26T10:31:13.707Z,0.80
2023-02-26T10:33:48.915Z,0.60
2023-02-26T10:36:24.069Z,0.50
2023-02-26T10:38:55.970Z,0.73
2023-02-26T10:41:28.306Z,0.80
2023-02-26T10:44:04.310Z,0.70
2023-02-26T10:46:42.473Z,0.80
2023-02-26T10:49:33.894Z,0.60
2023-02-26T10:52:11.593Z,0.67
2023-02-26T10:54:47.747Z,0.70
2023-02-26T10:57:21.818Z,0.70
2023-02-26T10:59:49.607Z,0.50
2023-02-26T11:02:35.398Z,1.23
2023-02-26T11:05:07.959Z,0.70
2023-02-26T11:07:38.798Z,0.63
2023-02-26T11:10:15.773Z,0.90
2023-02-26T11:12:43.580Z,0.50
2023-02-26T11:15:15.584Z,0.50
2023-02-26T11:17:44.796Z,1.03
2023-02-26T11:20:20.503Z,0.63
2023-02-26T11:22:51.852Z,0.80
2023-02-26T11:25:23.885Z,0.50
2023-02-26T11:27:56.786Z,0.47
2023-02-26T11:30:28.496Z,0.80
2023-02-26T11:33:00.357Z,0.50
2023-02-26T11:35:28.726Z,0.73
2023-02-26T11:38:02.454Z,0.85
2023-02-26T11:40:38.364Z,0.90
2023-02-26T11:43:09.282Z,0.50
2023-02-26T11:45:40.224Z,0.70
2023-02-26T11:48:14.787Z,1.00
2023-02-26T11:50:48.617Z,0.60
2023-02-26T11:53:21.487Z,0.90
2023-02-26T11:55:54.151Z,0.60
2023-02-26T11:58:24.096Z,0.80
2023-02-26T12:00:54.469Z,0.60
2023-02-26T12:03:28.633Z,0.80
2023-02-26T12:05:58.429Z,0.80
2023-02-26T12:08:30.941Z,0.50
2023-02-26T12:11:17.112Z,0.70
2023-02-26T12:14:02.345Z,3.40
2023-02-26T12:16:39.788Z,0.70
2023-02-26T12:19:17.261Z,0.60
2023-02-26T12:22:07.706Z,0.60
2023-02-26T12:24:53.073Z,0.68
2023-02-26T12:27:32.462Z,0.60
2023-02-26T12:30:22.334Z,0.50
2023-02-26T12:33:10.425Z,0.88
2023-02-26T12:35:46.606Z,0.80
2023-02-26T12:38:21.760Z,0.75
2023-02-26T12:41:15.570Z,0.80
2023-02-26T12:43:48.630Z,0.80
2023-02-26T12:46:26.606Z,0.63
2023-02-26T12:49:23.560Z,0.52
2023-02-26T12:52:07.739Z,0.93
2023-02-26T12:54:57.903Z,0.90
2023-02-26T12:57:50.101Z,0.73
2023-02-26T13:00:31.053Z,0.77
2023-02-26T13:03:30.065Z,0.63
2023-02-26T13:06:26.916Z,0.63
2023-02-26T13:09:04.503Z,0.90
2023-02-26T13:11:47.514Z,0.87
2023-02-26T13:14:28.612Z,0.70
2023-02-26T13:17:05.175Z,0.60
2023-02-26T13:19:39.835Z,0.88
2023-02-26T13:22:17.697Z,0.70
2023-02-26T13:24:52.649Z,0.93
2023-02-26T13:27:23.974Z,1.08
2023-02-26T13:30:01.137Z,0.67
2023-02-26T13:32:30.156Z,0.50
2023-02-26T13:35:01.393Z,0.70
2023-02-26T13:37:32.276Z,1.07
2023-02-26T13:40:36.152Z,0.70
2023-02-26T13:43:16.798Z,0.63
2023-02-26T13:45:54.807Z,1.03
2023-02-26T13:48:31.845Z,0.80
2023-02-26T13:51:08.881Z,1.13
2023-02-26T13:53:59.123Z,0.90
2023-02-26T13:56:55.425Z,0.97
2023-02-26T13:59:32.407Z,1.20
2023-02-26T14:02:04.554Z,0.60
2023-02-26T14:04:34.360Z,0.70
2023-02-26T14:07:11.526Z,0.60
2023-02-26T14:09:55.414Z,0.57
2023-02-26T14:12:35.896Z,0.90
2023-02-26T14:15:30.808Z,0.53
2023-02-26T14:18:03.397Z,0.50
2023-02-26T14:20:32.624Z,0.80
2023-02-26T14:23:29.934Z,0.60
2023-02-26T14:26:06.995Z,0.98
2023-02-26T14:28:44.211Z,0.80
2023-02-26T14:31:19.805Z,1.00
2023-02-26T14:33:58.636Z,0.70
2023-02-26T14:39:04.762Z,0.90
2023-02-26T14:41:36.489Z,1.30
2023-02-26T14:44:12.767Z,1.30
2023-02-26T14:46:41.868Z,1.20
2023-02-26T14:49:18.451Z,0.90
2023-02-26T14:51:57.810Z,1.07
2023-02-26T14:54:40.068Z,0.83
2023-02-26T14:57:16.832Z,0.80
2023-02-26T14:59:59.141Z,0.90
2023-02-26T15:02:31.751Z,1.17
2023-02-26T15:05:12.884Z,1.20
2023-02-26T15:07:56.670Z,0.57
2023-02-26T15:11:08.872Z,0.93
2023-02-26T15:14:04.814Z,0.83
2023-02-26T15:16:46.459Z,1.07
2023-02-26T15:19:26.136Z,0.93
2023-02-26T15:22:04.248Z,0.90
2023-02-26T15:24:33.291Z,0.77
2023-02-26T15:27:03.893Z,1.00
2023-02-26T15:29:34.644Z,0.70
2023-02-26T15:32:32.088Z,0.60
2023-02-26T15:35:31.724Z,0.77
2023-02-26T15:38:02.236Z,0.70
2023-02-26T15:40:52.594Z,0.90
2023-02-26T15:43:45.823Z,1.33
2023-02-26T15:47:12.784Z,1.40
2023-02-26T15:53:54.561Z,0.73
2023-02-26T16:06:46.029Z,0.73
2023-02-26T16:09:21.769Z,0.70
2023-02-26T16:11:50.896Z,1.40
2023-02-26T16:14:23.715Z,1.40
2023-02-26T16:16:53.175Z,1.27
2023-02-26T16:19:50.035Z,1.20
2023-02-26T16:26:46.264Z,0.90
2023-02-26T16:30:14.963Z,0.90
2023-02-26T16:35:51.342Z,1.00
2023-02-26T16:39:01.233Z,1.17
2023-02-26T16:45:12.874Z,1.27
2023-02-26T16:47:41.293Z,1.37
2023-02-26T16:50:17.423Z,1.58
2023-02-26T16:52:49.810Z,1.40
2023-02-26T16:55:19.399Z,1.50
2023-02-26T16:57:48.759Z,1.70
2023-02-26T17:00:21.124Z,1.50
2023-02-26T17:02:50.019Z,1.40
2023-02-26T17:11:48.092Z,0.80
2023-02-26T17:14:23.964Z,1.00
2023-02-26T17:17:30.220Z,1.40
2023-02-26T17:20:45.352Z,2.07
2023-02-26T17:23:49.075Z,1.30
2023-02-26T17:26:36.820Z,1.57
2023-02-26T17:29:18.219Z,1.50
2023-02-26T17:31:52.646Z,1.90
2023-02-26T17:34:34.361Z,1.57
2023-02-26T17:41:01.683Z,1.40
2023-02-26T17:46:51.445Z,1.57
2023-02-26T17:49:19.104Z,1.70
2023-02-26T17:51:46.848Z,1.90
2023-02-26T17:54:29.508Z,1.90
2023-02-26T17:57:14.392Z,2.27
2023-02-26T17:59:55.737Z,1.60
2023-02-26T18:05:53.003Z,2.20
2023-02-26T18:08:23.825Z,2.00
2023-02-26T18:11:26.530Z,2.67
2023-02-26T18:14:36.534Z,2.07
2023-02-26T18:20:44.215Z,4.03
2023-02-26T18:23:58.981Z,2.20
2023-02-26T18:29:56.997Z,2.00
2023-02-26T18:32:45.962Z,2.00
2023-02-26T18:35:57.539Z,2.23
2023-02-26T18:38:46.288Z,2.03
2023-02-26T18:44:27.317Z,1.93
2023-02-26T18:47:14.344Z,2.23
2023-02-26T18:50:39.826Z,2.80
2023-02-26T18:53:14.439Z,2.10
2023-02-26T18:56:18.100Z,2.00
2023-02-26T18:59:14.628Z,2.63
2023-02-26T19:01:54.957Z,3.57
2023-02-26T19:04:46.299Z,3.10
2023-02-26T19:07:16.235Z,4.70
2023-02-26T19:10:06.195Z,3.33
2023-02-26T19:12:33.869Z,3.03
2023-02-26T19:15:01.688Z,3.30
2023-02-26T19:17:29.381Z,3.43
2023-02-26T19:19:57.146Z,2.90
2023-02-26T19:22:26.281Z,2.80
2023-02-26T19:24:55.114Z,2.97
2023-02-26T19:29:50.573Z,2.93
2023-02-26T19:32:18.358Z,3.00
2023-02-26T19:34:46.153Z,2.90
2023-02-26T19:37:13.880Z,4.20
2023-02-26T19:39:43.053Z,3.57
2023-02-26T19:42:11.119Z,3.00
2023-02-26T19:44:38.824Z,2.50
2023-02-26T19:47:06.888Z,2.37
2023-02-26T19:49:34.984Z,2.80
2023-02-26T19:52:02.892Z,3.40
2023-02-26T19:54:31.255Z,2.50
2023-02-26T19:57:00.432Z,3.33
2023-02-26T19:59:28.588Z,4.03
2023-02-26T20:01:56.423Z,4.10
2023-02-26T20:04:24.180Z,2.90
2023-02-26T20:06:51.926Z,3.03
2023-02-26T20:09:20.275Z,2.93
2023-02-26T20:11:48.148Z,2.72
2023-02-26T20:14:18.616Z,2.60
2023-02-26T20:16:46.426Z,2.60
2023-02-26T20:19:14.093Z,3.80
2023-02-26T20:21:42.238Z,3.53
2023-02-26T20:24:10.188Z,3.78
2023-02-26T20:26:38.511Z,4.50
2023-02-26T20:29:06.378Z,3.78
2023-02-26T20:31:35.729Z,4.20
2023-02-26T20:34:03.800Z,3.77
2023-02-26T20:36:31.694Z,3.50
2023-02-26T20:39:02.102Z,3.70
2023-02-26T20:41:29.726Z,3.67
2023-02-26T20:43:58.727Z,3.77
2023-02-26T20:46:26.617Z,3.83
2023-02-26T20:48:55.628Z,3.70
2023-02-26T20:51:23.422Z,3.47
2023-02-26T20:53:51.391Z,4.03
2023-02-26T20:56:19.103Z,3.40
2023-02-26T20:58:47.455Z,2.93
2023-02-26T21:01:15.327Z,3.17
2023-02-26T21:03:43.103Z,2.60
2023-02-26T21:06:12.216Z,2.67
2023-02-26T21:08:39.812Z,2.57
2023-02-26T21:11:08.174Z,2.87
2023-02-26T21:13:35.801Z,2.70
2023-02-26T21:16:03.954Z,2.57
2023-02-26T21:18:31.728Z,3.22
2023-02-26T21:20:59.695Z,3.50
2023-02-26T21:23:28.779Z,3.20
2023-02-26T21:25:56.698Z,3.37
2023-02-26T21:28:24.539Z,2.30
2023-02-26T21:30:52.675Z,2.10
2023-02-26T21:33:20.494Z,2.33
2023-02-26T21:35:51.527Z,2.43
2023-02-26T21:38:19.437Z,2.20
2023-02-26T21:40:48.714Z,2.50
2023-02-26T21:43:16.718Z,2.27
2023-02-26T21:45:44.683Z,2.08
2023-02-26T21:48:12.553Z,1.90
2023-02-26T21:50:40.256Z,2.47
2023-02-26T21:53:07.964Z,2.10
2023-02-26T21:55:35.574Z,2.07
2023-02-26T21:58:04.796Z,2.17
2023-02-26T22:00:32.610Z,1.53
2023-02-26T22:03:00.453Z,2.23
2023-02-26T22:05:28.323Z,1.90
2023-02-26T22:07:56.180Z,1.70
2023-02-26T22:10:23.920Z,1.70
2023-02-26T22:12:51.576Z,1.87
2023-02-26T22:15:21.372Z,1.53
2023-02-26T22:17:49.102Z,2.17
2023-02-26T22:20:17.115Z,1.80
2023-02-26T22:22:44.884Z,2.08
2023-02-26T22:25:13.493Z,1.80
2023-02-26T22:27:41.356Z,1.90
2023-02-26T22:30:10.646Z,2.27
2023-02-26T22:32:39.706Z,2.20
2023-02-26T22:35:08.851Z,2.33
2023-02-26T22:37:36.682Z,1.80
2023-02-26T22:40:05.217Z,2.07
2023-02-26T22:42:32.948Z,2.13
2023-02-26T22:45:00.638Z,2.37
2023-02-26T22:47:28.402Z,2.00
2023-02-26T22:49:57.509Z,1.73
2023-02-26T22:52:25.320Z,1.70
2023-02-26T22:54:53.353Z,1.80
2023-02-26T22:57:21.201Z,1.60
2023-02-26T22:59:48.912Z,1.73
2023-02-26T23:02:16.731Z,1.67
2023-02-26T23:04:45.488Z,1.63
2023-02-26T23:07:14.609Z,1.40
2023-02-26T23:09:42.403Z,1.80
2023-02-26T23:12:10.982Z,1.50
2023-02-26T23:14:38.749Z,1.73
2023-02-26T23:17:06.527Z,1.80
2023-02-26T23:19:34.245Z,1.63
2023-02-26T23:22:01.924Z,1.67
2023-02-26T23:24:31.027Z,1.20
2023-02-26T23:26:59.290Z,1.30
2023-02-26T23:29:27.139Z,1.30
2023-02-26T23:31:55.118Z,1.08
2023-02-26T23:34:22.878Z,1.40
2023-02-26T23:36:50.643Z,1.30
2023-02-26T23:39:18.409Z,1.20
2023-02-26T23:41:47.737Z,1.03
2023-02-26T23:44:15.438Z,1.40
2023-02-26T23:46:43.170Z,1.07
2023-02-26T23:49:10.937Z,1.47
2023-02-26T23:51:39.358Z,1.70
2023-02-26T23:54:07.114Z,0.85
2023-02-26T23:56:34.961Z,1.10
2023-02-26T23:59:04.355Z,1.30
